Airfield :
LOGIN :

Register | Disclaimer

   EN    FR    IT 

 










Legend :    VFR   Marginal VFR   IFR   Intensive IFR   Very Intensive IFR
Visi :
Ceiling :
>= 8 km
>= 3000ft
5 to 8 km
1000 to 3000 ft
1500m to 5 km
500 to 1000 ft
800 to 1500m
200 to 500 ft
< 800m
< 200 ft
Symbols :   Thunderstorms  Fog  Heavy snow  Heavy precipitations  Wind > 20 kt
SIGMETs :     Misc.  Thunderstorms  Icing  Turbulence  Mountain Waves  Volcanic Ashes






- Airport Elevation : 137 ft
- IATA code : ARN


ESSA - Stockholm-Arlanda

CURRENT METAR :
  • 131150Z 07004KT 0900 BCFG OVC002 OVC017 04/04 Q1003 R01L/29//95 R08/29//95 R01R/29//95 TEMPO 4000

EXPIRED METARs :
  • 131120Z 06004KT 050V110 2100 -RA BR BKN002 BKN021 04/04 Q1003 R01L/29//95 R08/29//95 R01R/29//95 TEMPO 4000
  • 131050Z VRB03KT 3400 -DZ OVC002 04/04 Q1003 R01L/29//95 R08/29//95 R01R/29//95 TEMPO 4000
  • 131020Z 06003KT 4200 DZ FEW017 BKN025 OVC035 04/04 Q1003 R01L/29//95 R08/29//95 R01R/29//95 TEMPO 4000
  • 130950Z 06005KT 2500 -RA BR BKN002 BKN026 04/04 Q1003 R01L/29//95 R08/29//95 R01R/29//95 TEMPO 6000
  • 130920Z 06004KT 4500 -RA BR SCT002 BKN026 04/04 Q1004 R01L/29//95 R08/29//95 R01R/29//95 TEMPO 6000 BR
  • 130850Z 07004KT 4100 -RA FEW014 SCT020 BKN031 04/04 Q1004 R01L/29//95 R08/29//95 R01R/29//95 TEMPO 4000 BR

TAF TAF ESSA
Valid from the 13 at 12:00 until the 14 at 12:00 UTC


131130Z 1312/1412 06004KT 9000 -RA BKN020
TEMPO 1312/1314 2000 RA BR BKN002
PROB40 1314/1317 1200 BR BKN002
TEMPO 1317/1401 0200 FG VV002
BECMG 1401/1403 RA BKN010
TEMPO 1403/1410 36010KT 2000 BKN005
PROB40 1410/1412 33010KT 1200 RASN VV003



MET'MAP, your aeronautical weather chart ! - Copyright ORBIFLY December 2007 - Disclaimer

ORBIFLY MET'MAP TEAM :

Programming & Development : Alexandra Zaïnal
Concept & Development : Baudouin d'Aumeries
Co-Development & Prog : Marc-Olivier Méhu
Technical & hardware support : Manuel Goepfert

Contact : metmap@orbifly.com




SOURCES & CREDITS :

   NOAA